createdAt,value
2023-05-25T00:01:00.556Z,9.20
2023-05-25T00:03:31.145Z,9.20
2023-05-25T00:06:01.372Z,9.10
2023-05-25T00:08:30.992Z,9.10
2023-05-25T00:10:58.794Z,9.00
2023-05-25T00:13:26.919Z,9.00
2023-05-25T00:15:54.780Z,8.90
2023-05-25T00:18:22.772Z,8.90
2023-05-25T00:20:53.981Z,8.90
2023-05-25T00:23:21.897Z,8.90
2023-05-25T00:25:51.098Z,8.80
2023-05-25T00:28:18.920Z,8.80
2023-05-25T00:30:46.724Z,8.80
2023-05-25T00:33:14.661Z,8.80
2023-05-25T00:35:43.563Z,8.70
2023-05-25T00:38:14.331Z,8.70
2023-05-25T00:40:42.590Z,8.70
2023-05-25T00:43:12.233Z,8.60
2023-05-25T00:45:40.648Z,8.60
2023-05-25T00:48:09.551Z,8.60
2023-05-25T00:50:40.476Z,8.60
2023-05-25T00:53:09.002Z,8.50
2023-05-25T00:55:39.770Z,8.50
2023-05-25T00:58:09.184Z,8.50
2023-05-25T01:00:41.929Z,8.50
2023-05-25T01:03:17.634Z,8.50
2023-05-25T01:05:48.756Z,8.50
2023-05-25T01:08:21.090Z,8.40
2023-05-25T01:10:50.414Z,8.40
2023-05-25T01:13:20.797Z,8.40
2023-05-25T01:15:52.132Z,8.40
2023-05-25T01:18:19.912Z,8.40
2023-05-25T01:21:13.938Z,8.30
2023-05-25T01:23:48.061Z,8.30
2023-05-25T01:26:19.069Z,8.30
2023-05-25T01:28:51.306Z,8.30
2023-05-25T01:31:21.642Z,8.30
2023-05-25T01:33:51.446Z,8.30
2023-05-25T01:36:21.339Z,8.30
2023-05-25T01:38:49.668Z,8.20
2023-05-25T01:41:17.428Z,8.10
2023-05-25T01:43:45.746Z,8.10
2023-05-25T01:46:19.256Z,8.00
2023-05-25T01:48:56.606Z,8.00
2023-05-25T01:51:33.316Z,8.00
2023-05-25T01:54:07.015Z,7.90
2023-05-25T01:56:37.073Z,7.90
2023-05-25T01:59:07.516Z,7.90
2023-05-25T02:01:36.795Z,7.90
2023-05-25T02:04:05.793Z,7.90
2023-05-25T02:06:37.062Z,7.90
2023-05-25T02:09:04.936Z,7.90
2023-05-25T02:11:32.776Z,7.80
2023-05-25T02:14:00.530Z,7.80
2023-05-25T02:16:29.860Z,7.80
2023-05-25T02:18:59.008Z,7.70
2023-05-25T02:21:26.821Z,7.70
2023-05-25T02:23:57.967Z,7.60
2023-05-25T02:26:26.219Z,7.60
2023-05-25T02:28:54.121Z,7.60
2023-05-25T02:31:22.071Z,7.60
2023-05-25T02:33:49.903Z,7.60
2023-05-25T02:36:17.684Z,7.60
2023-05-25T02:38:47.028Z,7.60
2023-05-25T02:41:16.865Z,7.60
2023-05-25T02:43:44.705Z,7.60
2023-05-25T02:46:12.500Z,7.60
2023-05-25T02:48:40.333Z,7.60
2023-05-25T02:51:08.075Z,7.50
2023-05-25T02:53:36.463Z,7.50
2023-05-25T02:56:04.890Z,7.50
2023-05-25T02:58:34.017Z,7.50
2023-05-25T03:01:02.568Z,7.50
2023-05-25T03:03:30.542Z,7.40
2023-05-25T03:05:58.634Z,7.40
2023-05-25T03:08:26.672Z,7.40
2023-05-25T03:10:54.432Z,7.40
2023-05-25T03:13:22.204Z,7.40
2023-05-25T03:15:51.301Z,7.40
2023-05-25T03:18:19.071Z,7.40
2023-05-25T03:20:46.860Z,7.30
2023-05-25T03:23:14.696Z,7.30
2023-05-25T03:25:42.718Z,7.30
2023-05-25T03:28:10.824Z,7.30
2023-05-25T03:30:38.612Z,7.30
2023-05-25T03:33:07.765Z,7.30
2023-05-25T03:35:35.567Z,7.30
2023-05-25T03:38:03.324Z,7.20
2023-05-25T03:40:31.076Z,7.20
2023-05-25T03:42:58.816Z,7.20
2023-05-25T03:45:26.591Z,7.20
2023-05-25T03:47:54.390Z,7.20
2023-05-25T03:50:23.611Z,7.20
2023-05-25T03:52:51.488Z,7.20
2023-05-25T03:55:19.496Z,7.10
2023-05-25T03:57:47.248Z,7.10
2023-05-25T04:00:16.813Z,7.20
2023-05-25T04:02:44.673Z,7.20
2023-05-25T04:05:12.457Z,7.20
2023-05-25T04:07:41.614Z,7.30
2023-05-25T04:10:09.875Z,7.30
2023-05-25T04:12:37.858Z,7.30
2023-05-25T04:15:09.038Z,7.40
2023-05-25T04:17:39.204Z,7.40
2023-05-25T04:20:09.668Z,7.40
2023-05-25T04:22:38.769Z,7.40
2023-05-25T04:25:08.977Z,7.40
2023-05-25T04:27:36.838Z,7.50
2023-05-25T04:30:05.463Z,7.50
2023-05-25T04:32:37.110Z,7.50
2023-05-25T04:35:05.486Z,7.60
2023-05-25T04:37:33.427Z,7.60
2023-05-25T04:40:01.583Z,7.60
2023-05-25T04:42:31.343Z,7.70
2023-05-25T04:44:59.432Z,7.70
2023-05-25T04:47:27.232Z,7.80
2023-05-25T04:49:55.033Z,7.80
2023-05-25T04:52:23.027Z,7.90
2023-05-25T04:54:51.515Z,8.00
2023-05-25T04:57:19.265Z,8.00
2023-05-25T05:05:01.578Z,8.20
2023-05-25T05:07:29.944Z,8.20
2023-05-25T05:09:57.696Z,8.30
2023-05-25T05:12:25.576Z,8.40
2023-05-25T05:14:53.303Z,8.40
2023-05-25T05:17:21.133Z,8.50
2023-05-25T05:19:48.929Z,8.60
2023-05-25T05:22:18.022Z,8.60
2023-05-25T05:24:45.792Z,8.70
2023-05-25T05:27:14.925Z,8.80
2023-05-25T05:29:42.762Z,8.90
2023-05-25T05:32:10.520Z,9.00
2023-05-25T05:34:38.446Z,9.00
2023-05-25T05:37:06.364Z,9.10
2023-05-25T05:39:35.644Z,9.20
2023-05-25T05:42:03.403Z,9.30
2023-05-25T05:44:31.164Z,9.30
2023-05-25T05:47:01.547Z,9.40
2023-05-25T05:49:30.313Z,9.50
2023-05-25T05:51:58.557Z,9.60
2023-05-25T05:54:27.693Z,9.70
2023-05-25T05:56:56.897Z,9.80
2023-05-25T05:59:24.855Z,9.90
2023-05-25T06:01:52.750Z,10.00
2023-05-25T06:04:20.860Z,10.00
2023-05-25T06:06:48.641Z,10.10
2023-05-25T06:09:16.576Z,10.20
2023-05-25T06:11:44.362Z,10.30
2023-05-25T06:14:13.444Z,10.40
2023-05-25T06:16:43.527Z,10.50
2023-05-25T06:19:11.623Z,10.60
2023-05-25T06:21:39.383Z,10.70
2023-05-25T06:24:08.172Z,10.70
2023-05-25T06:26:35.928Z,10.80
2023-05-25T06:29:03.692Z,10.90
2023-05-25T06:31:32.817Z,11.00
2023-05-25T06:34:00.600Z,11.20
2023-05-25T06:36:28.342Z,11.30
2023-05-25T06:38:56.327Z,11.40
2023-05-25T06:41:24.100Z,11.50
2023-05-25T06:43:51.855Z,11.60
2023-05-25T06:46:19.629Z,11.70
2023-05-25T06:48:48.803Z,11.80
2023-05-25T06:51:16.983Z,11.90
2023-05-25T06:53:45.008Z,12.00
2023-05-25T06:56:12.858Z,12.10
2023-05-25T06:58:40.601Z,12.20
2023-05-25T07:01:08.417Z,12.30
2023-05-25T07:03:36.330Z,12.40
2023-05-25T07:06:06.060Z,12.40
2023-05-25T07:08:33.863Z,12.50
2023-05-25T07:11:01.684Z,12.60
2023-05-25T07:13:29.477Z,12.70
2023-05-25T07:15:57.246Z,12.80
2023-05-25T07:18:25.064Z,12.90
2023-05-25T07:20:53.360Z,13.10
2023-05-25T07:23:22.539Z,13.10
2023-05-25T07:25:50.337Z,13.20
2023-05-25T07:28:18.110Z,13.30
2023-05-25T07:30:45.973Z,13.40
2023-05-25T07:33:13.737Z,13.50
2023-05-25T07:35:41.606Z,13.60
2023-05-25T07:38:10.481Z,13.70
2023-05-25T07:40:39.798Z,13.80
2023-05-25T07:43:08.400Z,13.90
2023-05-25T07:45:36.490Z,14.10
2023-05-25T07:48:06.912Z,14.20
2023-05-25T07:50:34.727Z,14.30
2023-05-25T07:53:02.483Z,14.40
2023-05-25T07:55:30.239Z,14.40
2023-05-25T07:57:59.436Z,14.50
2023-05-25T08:00:27.209Z,14.60
2023-05-25T08:02:55.179Z,14.80
2023-05-25T08:05:23.160Z,14.90
2023-05-25T08:07:50.909Z,15.00
2023-05-25T08:10:18.827Z,15.20
2023-05-25T08:12:48.836Z,15.40
2023-05-25T08:15:19.019Z,15.50
2023-05-25T08:17:47.972Z,15.70
2023-05-25T08:20:15.843Z,15.80
2023-05-25T08:22:45.343Z,15.90
2023-05-25T08:25:13.125Z,16.00
2023-05-25T08:27:41.015Z,16.20
2023-05-25T08:30:09.692Z,16.30
2023-05-25T08:32:38.841Z,16.40
2023-05-25T08:35:07.941Z,16.30
2023-05-25T08:37:35.734Z,16.30
2023-05-25T08:40:04.027Z,16.20
2023-05-25T08:42:31.797Z,16.10
2023-05-25T08:44:59.731Z,16.20
2023-05-25T08:47:32.977Z,16.30
2023-05-25T08:50:04.988Z,16.30
2023-05-25T08:52:34.956Z,16.40
2023-05-25T08:55:05.721Z,16.50
2023-05-25T08:57:41.143Z,16.60
2023-05-25T09:00:11.236Z,16.60
2023-05-25T09:02:43.243Z,16.70
2023-05-25T09:05:14.222Z,16.80
2023-05-25T09:07:43.966Z,16.80
2023-05-25T09:10:12.642Z,16.90
2023-05-25T09:12:42.497Z,16.90
2023-05-25T09:15:12.259Z,17.10
2023-05-25T09:17:41.382Z,17.20
2023-05-25T09:20:13.814Z,17.30
2023-05-25T09:22:42.075Z,17.40
2023-05-25T09:25:12.004Z,17.50
2023-05-25T09:27:40.012Z,17.60
2023-05-25T09:30:08.807Z,17.70
2023-05-25T09:32:36.653Z,17.80
2023-05-25T09:35:11.680Z,17.80
2023-05-25T09:37:41.906Z,17.80
2023-05-25T09:40:11.472Z,17.90
2023-05-25T09:42:39.616Z,17.90
2023-05-25T09:45:08.326Z,17.90
2023-05-25T09:47:38.163Z,18.00
2023-05-25T09:50:07.620Z,18.00
2023-05-25T09:52:36.575Z,18.10
2023-05-25T09:55:10.517Z,18.20
2023-05-25T09:57:38.486Z,18.20
2023-05-25T10:00:08.745Z,18.20
2023-05-25T10:02:37.225Z,18.10
2023-05-25T10:05:06.158Z,18.00
2023-05-25T10:07:35.027Z,18.00
2023-05-25T10:10:07.510Z,17.90
2023-05-25T10:12:35.959Z,17.80
2023-05-25T10:15:04.976Z,17.80
2023-05-25T10:17:36.429Z,17.90
2023-05-25T10:20:08.446Z,17.80
2023-05-25T10:22:42.064Z,17.70
2023-05-25T10:25:16.855Z,17.80
2023-05-25T10:27:49.225Z,17.80
2023-05-25T10:30:17.219Z,18.00
2023-05-25T10:32:47.726Z,18.00
2023-05-25T10:35:15.835Z,18.10
2023-05-25T10:37:44.620Z,18.10
2023-05-25T10:40:15.176Z,18.30
2023-05-25T10:42:43.173Z,18.40
2023-05-25T10:45:11.685Z,18.50
2023-05-25T10:47:42.620Z,18.50
2023-05-25T10:50:21.607Z,18.60
2023-05-25T10:53:01.255Z,18.50
2023-05-25T10:55:42.333Z,18.50
2023-05-25T10:58:12.095Z,18.50
2023-05-25T11:00:40.906Z,18.50
2023-05-25T11:03:09.403Z,18.50
2023-05-25T11:05:39.091Z,18.50
2023-05-25T11:08:08.956Z,18.60
2023-05-25T11:10:54.282Z,18.50
2023-05-25T11:13:38.013Z,18.50
2023-05-25T11:16:36.134Z,18.60
2023-05-25T11:19:04.161Z,18.40
2023-05-25T11:21:45.409Z,18.30
2023-05-25T11:24:15.778Z,18.30
2023-05-25T11:26:59.704Z,18.30
2023-05-25T11:29:32.990Z,18.20
2023-05-25T11:32:01.118Z,18.20
2023-05-25T11:34:29.171Z,18.30
2023-05-25T11:37:01.606Z,18.40
2023-05-25T11:39:30.341Z,18.40
2023-05-25T11:42:04.260Z,18.40
2023-05-25T11:44:34.127Z,18.30
2023-05-25T11:47:05.806Z,18.20
2023-05-25T11:49:33.580Z,18.20
2023-05-25T11:52:06.167Z,18.10
2023-05-25T11:54:34.422Z,18.10
2023-05-25T11:57:03.661Z,18.10
2023-05-25T11:59:32.349Z,18.10
2023-05-25T12:02:01.880Z,18.10
2023-05-25T12:04:29.995Z,18.10
2023-05-25T12:07:03.414Z,18.10
2023-05-25T12:09:31.238Z,18.10
2023-05-25T12:11:59.512Z,18.00
2023-05-25T12:14:28.689Z,18.10
2023-05-25T12:16:57.834Z,17.90
2023-05-25T12:19:25.949Z,17.70
2023-05-25T12:21:54.117Z,17.80
2023-05-25T12:24:22.021Z,18.10
2023-05-25T12:26:50.402Z,18.20
2023-05-25T12:29:18.589Z,18.10
2023-05-25T12:31:47.713Z,18.00
2023-05-25T12:34:17.092Z,18.00
2023-05-25T12:36:47.811Z,18.10
2023-05-25T12:39:17.069Z,18.10
2023-05-25T12:41:46.396Z,18.00
2023-05-25T12:44:22.988Z,18.00
2023-05-25T12:46:53.468Z,18.10
2023-05-25T12:49:26.013Z,18.20
2023-05-25T12:51:53.841Z,18.20
2023-05-25T12:54:43.872Z,18.20
2023-05-25T12:57:13.869Z,18.20
2023-05-25T12:59:42.829Z,18.10
2023-05-25T13:02:13.181Z,18.10
2023-05-25T13:04:42.862Z,18.20
2023-05-25T13:07:11.002Z,18.20
2023-05-25T13:09:39.130Z,18.30
2023-05-25T13:12:07.532Z,18.30
2023-05-25T13:14:35.978Z,18.40
2023-05-25T13:17:03.762Z,18.50
2023-05-25T13:19:32.881Z,18.60
2023-05-25T13:22:00.682Z,18.80
2023-05-25T13:24:28.505Z,18.80
2023-05-25T13:26:56.297Z,18.70
2023-05-25T13:29:25.592Z,18.50
2023-05-25T13:31:53.443Z,18.50
2023-05-25T13:34:21.267Z,18.50
2023-05-25T13:36:50.383Z,18.50
2023-05-25T13:39:18.296Z,18.50
2023-05-25T13:41:46.297Z,18.60
2023-05-25T13:44:16.481Z,18.70
2023-05-25T13:46:45.565Z,18.70
2023-05-25T13:49:15.131Z,18.70
2023-05-25T13:51:42.978Z,18.80
2023-05-25T13:54:12.657Z,18.80
2023-05-25T13:56:42.195Z,18.90
2023-05-25T13:59:10.050Z,19.10
2023-05-25T14:01:37.907Z,19.10
2023-05-25T14:04:05.797Z,19.00
2023-05-25T14:06:34.744Z,18.90
2023-05-25T14:09:02.612Z,18.90
2023-05-25T14:11:31.757Z,18.90
2023-05-25T14:13:59.557Z,19.00
2023-05-25T14:16:27.416Z,19.00
2023-05-25T14:18:56.410Z,19.10
2023-05-25T14:21:24.183Z,19.20
2023-05-25T14:23:51.961Z,19.20
2023-05-25T14:26:19.785Z,19.30
2023-05-25T14:28:49.032Z,19.30
2023-05-25T14:31:16.857Z,19.30
2023-05-25T14:33:44.652Z,19.30
2023-05-25T14:36:12.428Z,19.30
2023-05-25T14:38:40.167Z,19.10
2023-05-25T14:41:07.967Z,19.10
2023-05-25T14:43:35.796Z,19.10
2023-05-25T14:46:06.231Z,19.20
2023-05-25T14:48:34.100Z,19.20
2023-05-25T14:51:02.770Z,19.30
2023-05-25T14:53:31.040Z,19.40
2023-05-25T14:55:59.145Z,19.50
2023-05-25T14:58:27.002Z,19.60
2023-05-25T15:00:54.758Z,19.70
2023-05-25T15:03:23.933Z,19.70
2023-05-25T15:05:51.760Z,19.80
2023-05-25T15:08:19.577Z,19.80
2023-05-25T15:10:47.349Z,19.90
2023-05-25T15:13:15.628Z,19.80
2023-05-25T15:15:43.588Z,19.70
2023-05-25T15:18:11.587Z,19.50
2023-05-25T15:20:40.868Z,19.60
2023-05-25T15:23:08.688Z,19.70
2023-05-25T15:25:36.454Z,19.80
2023-05-25T15:28:04.574Z,19.90
2023-05-25T15:30:34.040Z,20.00
2023-05-25T15:33:02.134Z,20.00
2023-05-25T15:35:32.283Z,19.90
2023-05-25T15:38:02.078Z,19.80
2023-05-25T15:40:29.917Z,19.90
2023-05-25T15:42:57.670Z,19.90
2023-05-25T15:45:26.106Z,19.90
2023-05-25T15:47:53.919Z,19.80
2023-05-25T15:50:21.719Z,19.80
2023-05-25T15:52:49.471Z,19.70
2023-05-25T15:55:18.611Z,19.70
2023-05-25T15:57:46.394Z,19.80
2023-05-25T16:00:15.402Z,19.70
2023-05-25T16:02:43.231Z,19.60
2023-05-25T16:05:11.005Z,19.60
2023-05-25T16:07:38.763Z,19.70
2023-05-25T16:10:07.468Z,19.80
2023-05-25T16:12:36.624Z,19.90
2023-05-25T16:15:04.798Z,20.00
2023-05-25T16:17:32.603Z,20.10
2023-05-25T16:20:00.425Z,20.10
2023-05-25T16:22:28.251Z,20.00
2023-05-25T16:24:56.037Z,20.00
2023-05-25T16:27:23.834Z,20.00
2023-05-25T16:29:52.958Z,19.90
2023-05-25T16:32:20.716Z,19.90
2023-05-25T16:34:48.457Z,20.00
2023-05-25T16:37:16.254Z,20.00
2023-05-25T16:39:44.001Z,19.90
2023-05-25T16:42:11.852Z,19.80
2023-05-25T16:44:39.593Z,19.70
2023-05-25T16:47:08.874Z,19.60
2023-05-25T16:49:36.697Z,19.40
2023-05-25T16:52:04.938Z,19.30
2023-05-25T16:54:32.700Z,19.30
2023-05-25T16:57:01.640Z,19.20
2023-05-25T16:59:30.545Z,19.10
2023-05-25T17:01:59.111Z,18.90
2023-05-25T17:04:28.336Z,18.70
2023-05-25T17:06:56.440Z,18.50
2023-05-25T17:09:25.091Z,18.30
2023-05-25T17:11:53.812Z,18.10
2023-05-25T17:14:21.890Z,17.90
2023-05-25T17:16:49.733Z,17.70
2023-05-25T17:19:17.526Z,17.60
2023-05-25T17:21:46.650Z,17.60
2023-05-25T17:24:14.548Z,17.60
2023-05-25T17:26:42.302Z,17.50
2023-05-25T17:29:10.117Z,17.40
2023-05-25T17:31:37.992Z,17.30
2023-05-25T17:34:05.767Z,17.20
2023-05-25T17:36:33.533Z,17.10
2023-05-25T17:39:02.647Z,17.00
2023-05-25T17:41:30.776Z,17.00
2023-05-25T17:43:58.548Z,16.90
2023-05-25T17:46:27.070Z,16.80
2023-05-25T17:48:54.948Z,16.60
2023-05-25T17:51:22.920Z,16.50
2023-05-25T17:53:50.945Z,16.50
2023-05-25T17:56:20.039Z,16.40
2023-05-25T17:58:48.061Z,16.30
2023-05-25T18:01:16.260Z,16.20
2023-05-25T18:03:44.279Z,16.10
2023-05-25T18:06:12.076Z,16.10
2023-05-25T18:08:39.823Z,16.00
2023-05-25T18:11:07.578Z,15.90
2023-05-25T18:13:36.703Z,15.90
2023-05-25T18:16:04.517Z,15.80
2023-05-25T18:18:32.307Z,15.80
2023-05-25T18:21:00.114Z,15.80
2023-05-25T18:23:27.979Z,15.70
2023-05-25T18:25:55.731Z,15.70
2023-05-25T18:28:23.500Z,15.60
2023-05-25T18:30:52.689Z,15.60
2023-05-25T18:33:20.554Z,15.60
2023-05-25T18:35:48.577Z,15.50
2023-05-25T18:38:16.383Z,15.50
2023-05-25T18:40:44.256Z,15.40
2023-05-25T18:43:12.000Z,15.40
2023-05-25T18:45:39.863Z,15.40
2023-05-25T18:51:04.753Z,15.20
2023-05-25T18:53:32.526Z,15.10
2023-05-25T18:56:00.522Z,15.10
2023-05-25T18:58:28.335Z,15.00
2023-05-25T19:00:56.117Z,15.00
2023-05-25T19:03:25.351Z,15.00
2023-05-25T19:05:53.248Z,15.00
2023-05-25T19:08:21.008Z,14.90
2023-05-25T19:10:48.849Z,14.90
2023-05-25T19:13:16.709Z,14.90
2023-05-25T19:15:44.891Z,14.90
2023-05-25T19:18:12.954Z,14.90
2023-05-25T19:20:42.343Z,14.80
2023-05-25T19:23:10.467Z,14.80
2023-05-25T19:25:38.243Z,14.80
2023-05-25T19:28:05.988Z,14.70
2023-05-25T19:30:33.792Z,14.60
2023-05-25T19:33:01.632Z,14.60
2023-05-25T19:35:29.445Z,14.60
2023-05-25T19:37:59.960Z,14.60
2023-05-25T19:40:29.738Z,14.50
2023-05-25T19:42:57.482Z,14.50
2023-05-25T19:45:25.284Z,14.50
2023-05-25T19:47:53.363Z,14.40
2023-05-25T19:50:21.349Z,14.40
2023-05-25T19:52:49.154Z,14.40
2023-05-25T19:55:18.296Z,14.30
2023-05-25T19:57:46.050Z,14.30
2023-05-25T20:00:25.395Z,14.20
2023-05-25T20:02:54.371Z,14.20
2023-05-25T20:05:22.308Z,14.20
2023-05-25T20:07:52.224Z,14.10
2023-05-25T20:10:21.368Z,14.10
2023-05-25T20:12:49.218Z,14.10
2023-05-25T20:15:17.118Z,14.00
2023-05-25T20:17:44.961Z,14.00
2023-05-25T20:20:13.001Z,14.00
2023-05-25T20:22:40.944Z,13.90
2023-05-25T20:25:09.037Z,13.90
2023-05-25T20:27:38.126Z,13.90
2023-05-25T20:30:07.052Z,13.80
2023-05-25T20:32:34.834Z,13.80
2023-05-25T20:35:02.678Z,13.70
2023-05-25T20:37:30.426Z,13.70
2023-05-25T20:39:58.588Z,13.60
2023-05-25T20:42:26.410Z,13.50
2023-05-25T20:44:55.682Z,13.40
2023-05-25T20:47:23.509Z,13.40
2023-05-25T20:49:51.274Z,13.30
2023-05-25T20:52:19.102Z,13.20
2023-05-25T20:54:47.985Z,13.20
2023-05-25T20:57:15.920Z,13.10
2023-05-25T20:59:43.707Z,13.10
2023-05-25T21:02:12.801Z,13.00
2023-05-25T21:04:40.650Z,12.90
2023-05-25T21:07:08.409Z,12.90
2023-05-25T21:09:36.175Z,12.80
2023-05-25T21:12:04.362Z,12.70
2023-05-25T21:14:32.098Z,12.70
2023-05-25T21:16:59.874Z,12.60
2023-05-25T21:19:29.129Z,12.60
2023-05-25T21:21:56.954Z,12.50
2023-05-25T21:24:24.881Z,12.50
2023-05-25T21:26:52.646Z,12.40
2023-05-25T21:29:20.408Z,12.40
2023-05-25T21:31:48.197Z,12.30
2023-05-25T21:34:16.064Z,12.30
2023-05-25T21:36:45.268Z,12.20
2023-05-25T21:39:13.057Z,12.10
2023-05-25T21:41:41.723Z,12.10
2023-05-25T21:44:09.488Z,12.10
2023-05-25T21:46:38.562Z,12.00
2023-05-25T21:49:06.411Z,12.00
2023-05-25T21:51:34.182Z,12.00
2023-05-25T21:54:03.404Z,11.90
2023-05-25T21:56:31.184Z,11.80
2023-05-25T21:58:58.936Z,11.80
2023-05-25T22:01:26.903Z,11.70
2023-05-25T22:03:54.671Z,11.70
2023-05-25T22:06:22.433Z,11.60
2023-05-25T22:08:50.204Z,11.60
2023-05-25T22:11:21.026Z,11.50
2023-05-25T22:13:48.766Z,11.50
2023-05-25T22:16:16.576Z,11.40
2023-05-25T22:18:44.351Z,11.40
2023-05-25T22:21:12.117Z,11.40
2023-05-25T22:23:39.874Z,11.30
2023-05-25T22:26:07.847Z,11.20
2023-05-25T22:28:36.952Z,11.20
2023-05-25T22:31:05.034Z,11.10
2023-05-25T22:33:32.820Z,11.00
2023-05-25T22:36:00.706Z,11.00
2023-05-25T22:38:28.464Z,11.00
2023-05-25T22:40:56.754Z,10.90
2023-05-25T22:43:24.838Z,10.90
2023-05-25T22:45:54.212Z,10.90
2023-05-25T22:48:22.654Z,10.80
2023-05-25T22:50:50.535Z,10.80
2023-05-25T22:53:18.468Z,10.80
2023-05-25T22:55:47.568Z,10.70
2023-05-25T22:58:15.415Z,10.70
2023-05-25T23:00:43.192Z,10.60
2023-05-25T23:03:12.390Z,10.60
2023-05-25T23:05:40.454Z,10.50
2023-05-25T23:08:09.216Z,10.50
2023-05-25T23:10:36.974Z,10.40
2023-05-25T23:13:04.732Z,10.40
2023-05-25T23:15:32.578Z,10.30
2023-05-25T23:18:00.371Z,10.30
2023-05-25T23:20:29.505Z,10.30
2023-05-25T23:22:57.306Z,10.20
2023-05-25T23:25:25.088Z,10.10
2023-05-25T23:27:52.832Z,10.10
2023-05-25T23:30:20.757Z,10.10
2023-05-25T23:32:48.562Z,10.00
2023-05-25T23:35:16.378Z,9.90
2023-05-25T23:37:45.470Z,9.90
2023-05-25T23:40:13.252Z,9.80
2023-05-25T23:42:44.240Z,9.80
2023-05-25T23:45:13.424Z,9.70
2023-05-25T23:47:41.261Z,9.70
2023-05-25T23:50:09.684Z,9.70
2023-05-25T23:52:37.490Z,9.60
2023-05-25T23:55:07.940Z,9.60
2023-05-25T23:57:36.486Z,9.60
